sensor_id;sensor_type;location;lat;lon;timestamp;temperature;humidity
9987;DHT22;5033;46.310;11.214;2023-07-09T00:02:24;22.70;99.90
9987;DHT22;5033;46.310;11.214;2023-07-09T00:04:52;22.70;99.90
9987;DHT22;5033;46.310;11.214;2023-07-09T00:07:22;22.70;99.90
9987;DHT22;5033;46.310;11.214;2023-07-09T00:09:50;22.70;99.90
9987;DHT22;5033;46.310;11.214;2023-07-09T00:12:19;22.60;99.90
9987;DHT22;5033;46.310;11.214;2023-07-09T00:14:47;22.60;99.90
9987;DHT22;5033;46.310;11.214;2023-07-09T00:17:20;22.60;99.90
9987;DHT22;5033;46.310;11.214;2023-07-09T00:19:48;22.60;99.90
9987;DHT22;5033;46.310;11.214;2023-07-09T00:22:18;22.60;99.90
9987;DHT22;5033;46.310;11.214;2023-07-09T00:24:48;22.60;99.90
9987;DHT22;5033;46.310;11.214;2023-07-09T00:27:19;22.60;99.90
9987;DHT22;5033;46.310;11.214;2023-07-09T00:29:48;22.60;99.90
9987;DHT22;5033;46.310;11.214;2023-07-09T00:32:16;22.60;99.90
9987;DHT22;5033;46.310;11.214;2023-07-09T00:34:46;22.60;99.90
9987;DHT22;5033;46.310;11.214;2023-07-09T00:37:15;22.50;99.90
9987;DHT22;5033;46.310;11.214;2023-07-09T00:39:43;22.50;99.90
9987;DHT22;5033;46.310;11.214;2023-07-09T00:42:15;22.50;99.90
9987;DHT22;5033;46.310;11.214;2023-07-09T00:44:45;22.40;99.90
9987;DHT22;5033;46.310;11.214;2023-07-09T00:47:24;22.30;99.90
9987;DHT22;5033;46.310;11.214;2023-07-09T00:50:01;22.30;99.90
9987;DHT22;5033;46.310;11.214;2023-07-09T00:52:33;22.30;99.90
9987;DHT22;5033;46.310;11.214;2023-07-09T00:55:05;22.30;99.90
9987;DHT22;5033;46.310;11.214;2023-07-09T00:57:35;22.30;99.90
9987;DHT22;5033;46.310;11.214;2023-07-09T01:00:11;22.30;99.90
9987;DHT22;5033;46.310;11.214;2023-07-09T01:02:43;22.30;99.90
9987;DHT22;5033;46.310;11.214;2023-07-09T01:05:12;22.30;99.90
9987;DHT22;5033;46.310;11.214;2023-07-09T01:07:42;22.30;99.90
9987;DHT22;5033;46.310;11.214;2023-07-09T01:10:11;22.30;99.90
9987;DHT22;5033;46.310;11.214;2023-07-09T01:12:39;22.30;99.90
9987;DHT22;5033;46.310;11.214;2023-07-09T01:15:09;22.20;99.90
9987;DHT22;5033;46.310;11.214;2023-07-09T01:17:38;22.10;99.90
9987;DHT22;5033;46.310;11.214;2023-07-09T01:20:15;22.10;99.90
9987;DHT22;5033;46.310;11.214;2023-07-09T01:22:48;22.10;99.90
9987;DHT22;5033;46.310;11.214;2023-07-09T01:25:17;22.10;99.90
9987;DHT22;5033;46.310;11.214;2023-07-09T01:27:46;22.10;99.90
9987;DHT22;5033;46.310;11.214;2023-07-09T01:30:18;22.10;99.90
9987;DHT22;5033;46.310;11.214;2023-07-09T01:32:48;22.10;99.90
9987;DHT22;5033;46.310;11.214;2023-07-09T01:35:17;22.10;99.90
9987;DHT22;5033;46.310;11.214;2023-07-09T01:37:45;22.10;99.90
9987;DHT22;5033;46.310;11.214;2023-07-09T01:40:16;22.10;99.90
9987;DHT22;5033;46.310;11.214;2023-07-09T01:42:45;22.10;99.90
9987;DHT22;5033;46.310;11.214;2023-07-09T01:45:12;22.10;99.90
9987;DHT22;5033;46.310;11.214;2023-07-09T01:47:41;22.00;99.90
9987;DHT22;5033;46.310;11.214;2023-07-09T01:50:10;22.00;99.90
9987;DHT22;5033;46.310;11.214;2023-07-09T01:52:40;22.00;99.90
9987;DHT22;5033;46.310;11.214;2023-07-09T01:55:09;22.10;99.90
9987;DHT22;5033;46.310;11.214;2023-07-09T01:57:39;22.00;99.90
9987;DHT22;5033;46.310;11.214;2023-07-09T02:00:08;22.00;99.90
9987;DHT22;5033;46.310;11.214;2023-07-09T02:02:37;22.00;99.90
9987;DHT22;5033;46.310;11.214;2023-07-09T02:05:09;21.90;99.90
9987;DHT22;5033;46.310;11.214;2023-07-09T02:07:36;21.90;99.90
9987;DHT22;5033;46.310;11.214;2023-07-09T02:10:04;21.80;99.90
9987;DHT22;5033;46.310;11.214;2023-07-09T02:12:32;21.80;99.90
9987;DHT22;5033;46.310;11.214;2023-07-09T02:15:01;21.80;99.90
9987;DHT22;5033;46.310;11.214;2023-07-09T02:17:28;21.80;99.90
9987;DHT22;5033;46.310;11.214;2023-07-09T02:19:55;21.80;99.90
9987;DHT22;5033;46.310;11.214;2023-07-09T02:22:22;21.80;99.90
9987;DHT22;5033;46.310;11.214;2023-07-09T02:24:49;21.80;99.90
9987;DHT22;5033;46.310;11.214;2023-07-09T02:27:19;21.80;99.90
9987;DHT22;5033;46.310;11.214;2023-07-09T02:29:46;21.80;99.90
9987;DHT22;5033;46.310;11.214;2023-07-09T02:32:18;21.70;99.90
9987;DHT22;5033;46.310;11.214;2023-07-09T02:34:46;21.70;99.90
9987;DHT22;5033;46.310;11.214;2023-07-09T02:37:15;21.70;99.90
9987;DHT22;5033;46.310;11.214;2023-07-09T02:39:44;21.70;99.90
9987;DHT22;5033;46.310;11.214;2023-07-09T02:42:12;21.70;99.90
9987;DHT22;5033;46.310;11.214;2023-07-09T02:44:40;21.70;99.90
9987;DHT22;5033;46.310;11.214;2023-07-09T02:47:07;21.70;99.90
9987;DHT22;5033;46.310;11.214;2023-07-09T02:49:36;21.60;99.90
9987;DHT22;5033;46.310;11.214;2023-07-09T02:52:05;21.60;99.90
9987;DHT22;5033;46.310;11.214;2023-07-09T02:54:32;21.60;99.90
9987;DHT22;5033;46.310;11.214;2023-07-09T02:56:59;21.60;99.90
9987;DHT22;5033;46.310;11.214;2023-07-09T02:59:26;21.60;99.90
9987;DHT22;5033;46.310;11.214;2023-07-09T03:01:55;21.60;99.90
9987;DHT22;5033;46.310;11.214;2023-07-09T03:04:22;21.60;99.90
9987;DHT22;5033;46.310;11.214;2023-07-09T03:06:51;21.50;99.90
9987;DHT22;5033;46.310;11.214;2023-07-09T03:09:19;21.50;99.90
9987;DHT22;5033;46.310;11.214;2023-07-09T03:11:47;21.50;99.90
9987;DHT22;5033;46.310;11.214;2023-07-09T03:14:15;21.50;99.90
9987;DHT22;5033;46.310;11.214;2023-07-09T03:16:42;21.50;99.90
9987;DHT22;5033;46.310;11.214;2023-07-09T03:19:09;21.50;99.90
9987;DHT22;5033;46.310;11.214;2023-07-09T03:21:36;21.50;99.90
9987;DHT22;5033;46.310;11.214;2023-07-09T03:24:07;21.50;99.90
9987;DHT22;5033;46.310;11.214;2023-07-09T03:26:34;21.40;99.90
9987;DHT22;5033;46.310;11.214;2023-07-09T03:29:01;21.40;99.90
9987;DHT22;5033;46.310;11.214;2023-07-09T03:31:29;21.30;99.90
9987;DHT22;5033;46.310;11.214;2023-07-09T03:34:00;21.40;99.90
9987;DHT22;5033;46.310;11.214;2023-07-09T03:36:28;21.30;99.90
9987;DHT22;5033;46.310;11.214;2023-07-09T03:38:56;21.30;99.90
9987;DHT22;5033;46.310;11.214;2023-07-09T03:41:25;21.40;99.90
9987;DHT22;5033;46.310;11.214;2023-07-09T03:43:52;21.40;99.90
9987;DHT22;5033;46.310;11.214;2023-07-09T03:46:19;21.40;99.90
9987;DHT22;5033;46.310;11.214;2023-07-09T03:48:46;21.40;99.90
9987;DHT22;5033;46.310;11.214;2023-07-09T03:51:15;21.40;99.90
9987;DHT22;5033;46.310;11.214;2023-07-09T03:53:43;21.30;99.90
9987;DHT22;5033;46.310;11.214;2023-07-09T03:56:10;21.30;99.90
9987;DHT22;5033;46.310;11.214;2023-07-09T03:58:39;21.30;99.90
9987;DHT22;5033;46.310;11.214;2023-07-09T04:01:06;21.30;99.90
9987;DHT22;5033;46.310;11.214;2023-07-09T04:03:33;21.20;99.90
9987;DHT22;5033;46.310;11.214;2023-07-09T04:06:00;21.20;99.90
9987;DHT22;5033;46.310;11.214;2023-07-09T04:08:27;21.20;99.90
9987;DHT22;5033;46.310;11.214;2023-07-09T04:10:58;21.20;99.90
9987;DHT22;5033;46.310;11.214;2023-07-09T04:13:26;21.10;99.90
9987;DHT22;5033;46.310;11.214;2023-07-09T04:15:55;21.20;99.90
9987;DHT22;5033;46.310;11.214;2023-07-09T04:18:22;21.20;99.90
9987;DHT22;5033;46.310;11.214;2023-07-09T04:20:50;21.30;99.90
9987;DHT22;5033;46.310;11.214;2023-07-09T04:23:18;21.40;99.90
9987;DHT22;5033;46.310;11.214;2023-07-09T04:25:45;21.40;99.90
9987;DHT22;5033;46.310;11.214;2023-07-09T04:28:12;21.40;99.90
9987;DHT22;5033;46.310;11.214;2023-07-09T04:30:46;21.50;99.90
9987;DHT22;5033;46.310;11.214;2023-07-09T04:33:15;21.60;99.90
9987;DHT22;5033;46.310;11.214;2023-07-09T04:35:44;21.70;99.90
9987;DHT22;5033;46.310;11.214;2023-07-09T04:38:12;21.70;99.90
9987;DHT22;5033;46.310;11.214;2023-07-09T04:40:39;21.60;99.90
9987;DHT22;5033;46.310;11.214;2023-07-09T04:43:07;21.60;99.90
9987;DHT22;5033;46.310;11.214;2023-07-09T04:45:34;21.70;99.90
9987;DHT22;5033;46.310;11.214;2023-07-09T04:48:01;21.70;99.90
9987;DHT22;5033;46.310;11.214;2023-07-09T04:50:31;21.70;99.90
9987;DHT22;5033;46.310;11.214;2023-07-09T04:52:59;21.60;99.90
9987;DHT22;5033;46.310;11.214;2023-07-09T04:55:26;21.60;99.90
9987;DHT22;5033;46.310;11.214;2023-07-09T04:57:53;21.60;99.90
9987;DHT22;5033;46.310;11.214;2023-07-09T05:00:21;21.50;99.90
9987;DHT22;5033;46.310;11.214;2023-07-09T05:02:48;21.50;99.90
9987;DHT22;5033;46.310;11.214;2023-07-09T05:05:15;21.60;99.90
9987;DHT22;5033;46.310;11.214;2023-07-09T05:07:44;21.80;99.90
9987;DHT22;5033;46.310;11.214;2023-07-09T05:10:13;22.10;99.90
9987;DHT22;5033;46.310;11.214;2023-07-09T05:12:48;22.20;99.90
9987;DHT22;5033;46.310;11.214;2023-07-09T05:15:16;22.40;99.90
9987;DHT22;5033;46.310;11.214;2023-07-09T05:17:44;22.40;99.90
9987;DHT22;5033;46.310;11.214;2023-07-09T05:20:13;22.60;99.90
9987;DHT22;5033;46.310;11.214;2023-07-09T05:22:41;22.80;99.90
9987;DHT22;5033;46.310;11.214;2023-07-09T05:25:10;22.90;99.90
9987;DHT22;5033;46.310;11.214;2023-07-09T05:27:37;23.00;99.90
9987;DHT22;5033;46.310;11.214;2023-07-09T05:30:06;22.90;99.90
9987;DHT22;5033;46.310;11.214;2023-07-09T05:32:34;23.00;99.90
9987;DHT22;5033;46.310;11.214;2023-07-09T05:35:02;22.90;99.90
9987;DHT22;5033;46.310;11.214;2023-07-09T05:37:30;23.00;99.90
9987;DHT22;5033;46.310;11.214;2023-07-09T05:39:57;23.10;99.90
9987;DHT22;5033;46.310;11.214;2023-07-09T05:42:26;23.20;99.90
9987;DHT22;5033;46.310;11.214;2023-07-09T05:44:53;23.40;99.90
9987;DHT22;5033;46.310;11.214;2023-07-09T05:47:20;23.40;99.90
9987;DHT22;5033;46.310;11.214;2023-07-09T05:49:47;23.50;99.90
9987;DHT22;5033;46.310;11.214;2023-07-09T05:52:16;23.60;99.90
9987;DHT22;5033;46.310;11.214;2023-07-09T05:54:44;23.60;99.90
9987;DHT22;5033;46.310;11.214;2023-07-09T05:57:11;23.70;99.90
9987;DHT22;5033;46.310;11.214;2023-07-09T05:59:40;23.70;99.90
9987;DHT22;5033;46.310;11.214;2023-07-09T06:02:10;23.60;99.90
9987;DHT22;5033;46.310;11.214;2023-07-09T06:04:38;23.60;99.90
9987;DHT22;5033;46.310;11.214;2023-07-09T06:07:05;23.80;99.90
9987;DHT22;5033;46.310;11.214;2023-07-09T06:09:32;23.80;99.90
9987;DHT22;5033;46.310;11.214;2023-07-09T06:11:59;23.90;99.90
9987;DHT22;5033;46.310;11.214;2023-07-09T06:14:27;23.80;99.90
9987;DHT22;5033;46.310;11.214;2023-07-09T06:16:56;23.80;99.90
9987;DHT22;5033;46.310;11.214;2023-07-09T06:19:23;23.90;99.90
9987;DHT22;5033;46.310;11.214;2023-07-09T06:21:50;24.10;99.90
9987;DHT22;5033;46.310;11.214;2023-07-09T06:24:18;24.10;99.90
9987;DHT22;5033;46.310;11.214;2023-07-09T06:26:45;24.20;99.90
9987;DHT22;5033;46.310;11.214;2023-07-09T06:29:12;24.40;99.90
9987;DHT22;5033;46.310;11.214;2023-07-09T06:31:39;24.50;99.90
9987;DHT22;5033;46.310;11.214;2023-07-09T06:34:09;24.50;99.90
9987;DHT22;5033;46.310;11.214;2023-07-09T06:36:37;24.50;99.90
9987;DHT22;5033;46.310;11.214;2023-07-09T06:39:04;24.50;99.90
9987;DHT22;5033;46.310;11.214;2023-07-09T06:41:32;24.60;99.90
9987;DHT22;5033;46.310;11.214;2023-07-09T06:44:04;24.70;99.90
9987;DHT22;5033;46.310;11.214;2023-07-09T06:46:32;24.60;99.90
9987;DHT22;5033;46.310;11.214;2023-07-09T06:48:59;24.60;99.90
9987;DHT22;5033;46.310;11.214;2023-07-09T06:51:27;24.70;99.90
9987;DHT22;5033;46.310;11.214;2023-07-09T06:53:55;24.70;99.90
9987;DHT22;5033;46.310;11.214;2023-07-09T06:56:23;24.80;99.90
9987;DHT22;5033;46.310;11.214;2023-07-09T06:58:51;24.90;99.90
9987;DHT22;5033;46.310;11.214;2023-07-09T07:01:18;25.00;99.90
9987;DHT22;5033;46.310;11.214;2023-07-09T07:03:45;25.00;99.90
9987;DHT22;5033;46.310;11.214;2023-07-09T07:06:12;25.00;99.90
9987;DHT22;5033;46.310;11.214;2023-07-09T07:08:42;25.20;99.90
9987;DHT22;5033;46.310;11.214;2023-07-09T07:11:09;25.30;99.90
9987;DHT22;5033;46.310;11.214;2023-07-09T07:13:38;25.30;99.90
9987;DHT22;5033;46.310;11.214;2023-07-09T07:16:07;25.50;99.90
9987;DHT22;5033;46.310;11.214;2023-07-09T07:18:35;25.60;99.90
9987;DHT22;5033;46.310;11.214;2023-07-09T07:21:03;25.70;99.90
9987;DHT22;5033;46.310;11.214;2023-07-09T07:23:30;25.70;99.90
9987;DHT22;5033;46.310;11.214;2023-07-09T07:25:59;25.50;99.90
9987;DHT22;5033;46.310;11.214;2023-07-09T07:28:26;25.40;99.90
9987;DHT22;5033;46.310;11.214;2023-07-09T07:31:00;25.40;99.90
9987;DHT22;5033;46.310;11.214;2023-07-09T07:33:27;25.60;99.90
9987;DHT22;5033;46.310;11.214;2023-07-09T07:35:54;25.70;99.90
9987;DHT22;5033;46.310;11.214;2023-07-09T07:38:21;25.90;99.90
9987;DHT22;5033;46.310;11.214;2023-07-09T07:40:50;26.10;99.90
9987;DHT22;5033;46.310;11.214;2023-07-09T07:43:19;26.20;99.90
9987;DHT22;5033;46.310;11.214;2023-07-09T07:45:48;26.30;99.90
9987;DHT22;5033;46.310;11.214;2023-07-09T07:48:15;26.40;99.90
9987;DHT22;5033;46.310;11.214;2023-07-09T07:50:42;26.40;99.90
9987;DHT22;5033;46.310;11.214;2023-07-09T07:53:11;26.40;99.90
9987;DHT22;5033;46.310;11.214;2023-07-09T07:55:39;26.60;99.90
9987;DHT22;5033;46.310;11.214;2023-07-09T07:58:07;26.70;99.90
9987;DHT22;5033;46.310;11.214;2023-07-09T08:00:36;26.80;99.90
9987;DHT22;5033;46.310;11.214;2023-07-09T08:03:03;26.90;99.90
9987;DHT22;5033;46.310;11.214;2023-07-09T08:05:30;27.10;99.90
9987;DHT22;5033;46.310;11.214;2023-07-09T08:07:58;27.10;99.90
9987;DHT22;5033;46.310;11.214;2023-07-09T08:10:25;27.00;99.90
9987;DHT22;5033;46.310;11.214;2023-07-09T08:12:52;26.90;99.90
9987;DHT22;5033;46.310;11.214;2023-07-09T08:15:22;27.00;99.90
9987;DHT22;5033;46.310;11.214;2023-07-09T08:17:51;27.00;99.90
9987;DHT22;5033;46.310;11.214;2023-07-09T08:20:18;27.10;99.90
9987;DHT22;5033;46.310;11.214;2023-07-09T08:22:45;27.10;99.90
9987;DHT22;5033;46.310;11.214;2023-07-09T08:25:12;27.20;99.90
9987;DHT22;5033;46.310;11.214;2023-07-09T08:27:40;27.50;99.90
9987;DHT22;5033;46.310;11.214;2023-07-09T08:30:08;27.70;99.90
9987;DHT22;5033;46.310;11.214;2023-07-09T08:32:35;27.80;99.90
9987;DHT22;5033;46.310;11.214;2023-07-09T08:35:05;27.90;99.90
9987;DHT22;5033;46.310;11.214;2023-07-09T08:37:32;28.00;99.90
9987;DHT22;5033;46.310;11.214;2023-07-09T08:39:59;28.10;99.90
9987;DHT22;5033;46.310;11.214;2023-07-09T08:42:32;28.30;99.90
9987;DHT22;5033;46.310;11.214;2023-07-09T08:45:12;28.50;99.90
9987;DHT22;5033;46.310;11.214;2023-07-09T08:47:47;28.40;99.90
9987;DHT22;5033;46.310;11.214;2023-07-09T08:50:22;28.30;99.90
9987;DHT22;5033;46.310;11.214;2023-07-09T08:52:52;28.50;99.90
9987;DHT22;5033;46.310;11.214;2023-07-09T08:55:21;28.70;99.90
9987;DHT22;5033;46.310;11.214;2023-07-09T08:57:54;28.90;99.90
9987;DHT22;5033;46.310;11.214;2023-07-09T09:00:28;28.70;99.90
9987;DHT22;5033;46.310;11.214;2023-07-09T09:02:59;28.60;99.90
9987;DHT22;5033;46.310;11.214;2023-07-09T09:05:32;28.50;99.90
9987;DHT22;5033;46.310;11.214;2023-07-09T09:08:08;28.60;99.90
9987;DHT22;5033;46.310;11.214;2023-07-09T09:10:42;28.70;99.90
9987;DHT22;5033;46.310;11.214;2023-07-09T09:13:13;28.80;99.90
9987;DHT22;5033;46.310;11.214;2023-07-09T09:15:43;28.70;99.90
9987;DHT22;5033;46.310;11.214;2023-07-09T09:18:19;29.00;99.90
9987;DHT22;5033;46.310;11.214;2023-07-09T09:20:53;29.20;99.90
9987;DHT22;5033;46.310;11.214;2023-07-09T09:23:22;29.30;99.90
9987;DHT22;5033;46.310;11.214;2023-07-09T09:25:53;29.40;99.90
9987;DHT22;5033;46.310;11.214;2023-07-09T09:28:22;29.40;99.90
9987;DHT22;5033;46.310;11.214;2023-07-09T09:30:51;29.60;99.90
9987;DHT22;5033;46.310;11.214;2023-07-09T09:33:18;29.60;99.90
9987;DHT22;5033;46.310;11.214;2023-07-09T09:35:45;29.70;99.90
9987;DHT22;5033;46.310;11.214;2023-07-09T09:38:20;29.80;99.90
9987;DHT22;5033;46.310;11.214;2023-07-09T09:40:48;29.80;99.90
9987;DHT22;5033;46.310;11.214;2023-07-09T09:43:17;29.90;99.90
9987;DHT22;5033;46.310;11.214;2023-07-09T09:45:47;30.20;99.90
9987;DHT22;5033;46.310;11.214;2023-07-09T09:48:18;30.40;99.90
9987;DHT22;5033;46.310;11.214;2023-07-09T09:50:46;30.60;99.90
9987;DHT22;5033;46.310;11.214;2023-07-09T09:53:20;30.70;99.90
9987;DHT22;5033;46.310;11.214;2023-07-09T09:55:48;30.60;99.90
9987;DHT22;5033;46.310;11.214;2023-07-09T09:58:17;30.30;99.90
9987;DHT22;5033;46.310;11.214;2023-07-09T10:00:51;30.20;99.90
9987;DHT22;5033;46.310;11.214;2023-07-09T10:03:19;30.20;99.90
9987;DHT22;5033;46.310;11.214;2023-07-09T10:05:51;30.30;99.90
9987;DHT22;5033;46.310;11.214;2023-07-09T10:08:30;30.60;99.90
9987;DHT22;5033;46.310;11.214;2023-07-09T10:11:18;30.70;99.90
9987;DHT22;5033;46.310;11.214;2023-07-09T10:13:48;30.70;99.90
9987;DHT22;5033;46.310;11.214;2023-07-09T10:16:21;30.80;99.90
9987;DHT22;5033;46.310;11.214;2023-07-09T10:18:56;31.00;99.90
9987;DHT22;5033;46.310;11.214;2023-07-09T10:21:29;31.30;99.90
9987;DHT22;5033;46.310;11.214;2023-07-09T10:24:11;31.30;99.90
9987;DHT22;5033;46.310;11.214;2023-07-09T10:26:45;31.50;99.90
9987;DHT22;5033;46.310;11.214;2023-07-09T10:29:29;31.60;99.90
9987;DHT22;5033;46.310;11.214;2023-07-09T10:32:08;31.50;99.90
9987;DHT22;5033;46.310;11.214;2023-07-09T10:34:45;31.40;99.90
9987;DHT22;5033;46.310;11.214;2023-07-09T10:37:24;31.40;99.90
9987;DHT22;5033;46.310;11.214;2023-07-09T10:39:57;31.50;99.90
9987;DHT22;5033;46.310;11.214;2023-07-09T10:42:26;31.60;99.90
9987;DHT22;5033;46.310;11.214;2023-07-09T10:44:57;31.60;99.90
9987;DHT22;5033;46.310;11.214;2023-07-09T10:47:30;31.80;99.90
9987;DHT22;5033;46.310;11.214;2023-07-09T10:49:59;32.10;99.90
9987;DHT22;5033;46.310;11.214;2023-07-09T10:52:29;32.20;99.90
9987;DHT22;5033;46.310;11.214;2023-07-09T10:55:02;32.10;99.90
9987;DHT22;5033;46.310;11.214;2023-07-09T10:57:38;31.90;99.90
9987;DHT22;5033;46.310;11.214;2023-07-09T11:00:12;31.90;99.90
9987;DHT22;5033;46.310;11.214;2023-07-09T11:02:42;32.00;99.90
9987;DHT22;5033;46.310;11.214;2023-07-09T11:05:10;32.10;99.90
9987;DHT22;5033;46.310;11.214;2023-07-09T11:07:43;32.20;99.90
9987;DHT22;5033;46.310;11.214;2023-07-09T11:10:20;32.10;99.90
9987;DHT22;5033;46.310;11.214;2023-07-09T11:12:56;32.10;99.90
9987;DHT22;5033;46.310;11.214;2023-07-09T11:15:29;32.00;99.90
9987;DHT22;5033;46.310;11.214;2023-07-09T11:17:58;32.00;99.90
9987;DHT22;5033;46.310;11.214;2023-07-09T11:20:34;32.10;99.90
9987;DHT22;5033;46.310;11.214;2023-07-09T11:23:03;32.40;99.90
9987;DHT22;5033;46.310;11.214;2023-07-09T11:25:42;32.30;99.90
9987;DHT22;5033;46.310;11.214;2023-07-09T11:28:10;32.50;99.90
9987;DHT22;5033;46.310;11.214;2023-07-09T11:30:49;32.60;99.90
9987;DHT22;5033;46.310;11.214;2023-07-09T11:33:18;32.60;99.90
9987;DHT22;5033;46.310;11.214;2023-07-09T11:35:47;32.60;99.90
9987;DHT22;5033;46.310;11.214;2023-07-09T11:38:18;32.70;99.90
9987;DHT22;5033;46.310;11.214;2023-07-09T11:40:49;32.70;99.90
9987;DHT22;5033;46.310;11.214;2023-07-09T11:43:32;32.80;99.90
9987;DHT22;5033;46.310;11.214;2023-07-09T11:46:13;33.00;99.90
9987;DHT22;5033;46.310;11.214;2023-07-09T11:48:41;32.90;99.90
9987;DHT22;5033;46.310;11.214;2023-07-09T11:51:14;33.10;99.90
9987;DHT22;5033;46.310;11.214;2023-07-09T11:53:45;33.10;99.90
9987;DHT22;5033;46.310;11.214;2023-07-09T11:56:18;33.20;99.90
9987;DHT22;5033;46.310;11.214;2023-07-09T11:58:49;33.20;99.90
9987;DHT22;5033;46.310;11.214;2023-07-09T12:01:19;33.30;99.90
9987;DHT22;5033;46.310;11.214;2023-07-09T12:03:48;33.60;99.90
9987;DHT22;5033;46.310;11.214;2023-07-09T12:06:20;33.60;99.90
9987;DHT22;5033;46.310;11.214;2023-07-09T12:08:50;33.50;99.90
9987;DHT22;5033;46.310;11.214;2023-07-09T12:11:25;33.60;99.90
9987;DHT22;5033;46.310;11.214;2023-07-09T12:13:53;33.60;99.90
9987;DHT22;5033;46.310;11.214;2023-07-09T12:16:22;33.60;99.90
9987;DHT22;5033;46.310;11.214;2023-07-09T12:18:50;33.60;99.90
9987;DHT22;5033;46.310;11.214;2023-07-09T12:21:18;33.60;99.90
9987;DHT22;5033;46.310;11.214;2023-07-09T12:23:45;33.60;99.90
9987;DHT22;5033;46.310;11.214;2023-07-09T12:26:14;33.80;99.90
9987;DHT22;5033;46.310;11.214;2023-07-09T12:28:49;33.80;99.90
9987;DHT22;5033;46.310;11.214;2023-07-09T12:31:17;34.00;99.90
9987;DHT22;5033;46.310;11.214;2023-07-09T12:33:48;34.20;99.90
9987;DHT22;5033;46.310;11.214;2023-07-09T12:36:17;34.40;99.90
9987;DHT22;5033;46.310;11.214;2023-07-09T12:38:48;34.30;99.90
9987;DHT22;5033;46.310;11.214;2023-07-09T12:41:19;34.30;99.90
9987;DHT22;5033;46.310;11.214;2023-07-09T12:43:49;34.30;99.90
9987;DHT22;5033;46.310;11.214;2023-07-09T12:46:16;34.30;99.90
9987;DHT22;5033;46.310;11.214;2023-07-09T12:48:45;34.40;99.90
9987;DHT22;5033;46.310;11.214;2023-07-09T12:51:16;34.40;99.90
9987;DHT22;5033;46.310;11.214;2023-07-09T12:53:46;34.40;99.90
9987;DHT22;5033;46.310;11.214;2023-07-09T12:56:15;34.20;99.90
9987;DHT22;5033;46.310;11.214;2023-07-09T12:58:43;34.10;99.90
9987;DHT22;5033;46.310;11.214;2023-07-09T13:01:16;34.00;99.90
9987;DHT22;5033;46.310;11.214;2023-07-09T13:03:54;33.80;99.90
9987;DHT22;5033;46.310;11.214;2023-07-09T13:06:29;33.80;99.90
9987;DHT22;5033;46.310;11.214;2023-07-09T13:08:57;33.80;99.90
9987;DHT22;5033;46.310;11.214;2023-07-09T13:11:26;33.90;99.90
9987;DHT22;5033;46.310;11.214;2023-07-09T13:13:59;34.00;99.90
9987;DHT22;5033;46.310;11.214;2023-07-09T13:16:30;34.20;99.90
9987;DHT22;5033;46.310;11.214;2023-07-09T13:18:57;34.40;99.90
9987;DHT22;5033;46.310;11.214;2023-07-09T13:21:24;34.50;99.90
9987;DHT22;5033;46.310;11.214;2023-07-09T13:23:53;34.60;99.90
9987;DHT22;5033;46.310;11.214;2023-07-09T13:26:20;34.70;99.90
9987;DHT22;5033;46.310;11.214;2023-07-09T13:28:47;34.60;99.90
9987;DHT22;5033;46.310;11.214;2023-07-09T13:31:18;34.50;99.90
9987;DHT22;5033;46.310;11.214;2023-07-09T13:33:52;34.40;99.90
9987;DHT22;5033;46.310;11.214;2023-07-09T13:36:19;34.10;99.90
9987;DHT22;5033;46.310;11.214;2023-07-09T13:38:46;33.90;99.90
9987;DHT22;5033;46.310;11.214;2023-07-09T13:41:18;33.80;99.90
9987;DHT22;5033;46.310;11.214;2023-07-09T13:43:48;33.90;99.90
9987;DHT22;5033;46.310;11.214;2023-07-09T13:46:17;33.90;99.30
9987;DHT22;5033;46.310;11.214;2023-07-09T13:48:46;34.00;98.20
9987;DHT22;5033;46.310;11.214;2023-07-09T13:51:16;34.10;97.60
9987;DHT22;5033;46.310;11.214;2023-07-09T13:53:44;34.00;96.40
9987;DHT22;5033;46.310;11.214;2023-07-09T13:56:11;34.00;95.50
9987;DHT22;5033;46.310;11.214;2023-07-09T13:58:38;34.00;93.60
9987;DHT22;5033;46.310;11.214;2023-07-09T14:01:10;34.10;94.40
9987;DHT22;5033;46.310;11.214;2023-07-09T14:03:39;34.20;93.50
9987;DHT22;5033;46.310;11.214;2023-07-09T14:06:12;34.10;91.80
9987;DHT22;5033;46.310;11.214;2023-07-09T14:08:39;34.00;90.30
9987;DHT22;5033;46.310;11.214;2023-07-09T14:11:10;33.90;89.60
9987;DHT22;5033;46.310;11.214;2023-07-09T14:13:38;33.90;89.60
9987;DHT22;5033;46.310;11.214;2023-07-09T14:16:06;33.80;85.90
9987;DHT22;5033;46.310;11.214;2023-07-09T14:18:33;33.80;89.80
9987;DHT22;5033;46.310;11.214;2023-07-09T14:21:02;33.70;88.20
9987;DHT22;5033;46.310;11.214;2023-07-09T14:23:37;33.60;89.70
9987;DHT22;5033;46.310;11.214;2023-07-09T14:26:04;33.70;87.50
9987;DHT22;5033;46.310;11.214;2023-07-09T14:28:32;33.60;89.30
9987;DHT22;5033;46.310;11.214;2023-07-09T14:30:59;33.50;90.40
9987;DHT22;5033;46.310;11.214;2023-07-09T14:33:27;33.40;90.40
9987;DHT22;5033;46.310;11.214;2023-07-09T14:35:54;33.30;90.70
9987;DHT22;5033;46.310;11.214;2023-07-09T14:38:24;33.40;90.40
9987;DHT22;5033;46.310;11.214;2023-07-09T14:40:55;33.40;90.80
9987;DHT22;5033;46.310;11.214;2023-07-09T14:43:23;33.40;91.20
9987;DHT22;5033;46.310;11.214;2023-07-09T14:45:50;33.40;91.00
9987;DHT22;5033;46.310;11.214;2023-07-09T14:48:19;33.40;91.40
9987;DHT22;5033;46.310;11.214;2023-07-09T14:50:47;33.20;91.30
9987;DHT22;5033;46.310;11.214;2023-07-09T14:53:18;33.30;90.20
9987;DHT22;5033;46.310;11.214;2023-07-09T14:55:47;33.20;90.30
9987;DHT22;5033;46.310;11.214;2023-07-09T14:58:18;33.30;89.30
9987;DHT22;5033;46.310;11.214;2023-07-09T15:00:46;33.30;90.40
9987;DHT22;5033;46.310;11.214;2023-07-09T15:03:19;33.20;91.80
9987;DHT22;5033;46.310;11.214;2023-07-09T15:05:46;33.20;92.20
9987;DHT22;5033;46.310;11.214;2023-07-09T15:08:15;33.10;92.10
9987;DHT22;5033;46.310;11.214;2023-07-09T15:10:43;33.10;92.50
9987;DHT22;5033;46.310;11.214;2023-07-09T15:13:18;33.00;92.40
9987;DHT22;5033;46.310;11.214;2023-07-09T15:15:45;33.00;92.60
9987;DHT22;5033;46.310;11.214;2023-07-09T15:18:15;33.00;93.20
9987;DHT22;5033;46.310;11.214;2023-07-09T15:20:49;33.00;92.90
9987;DHT22;5033;46.310;11.214;2023-07-09T15:23:17;32.90;93.00
9987;DHT22;5033;46.310;11.214;2023-07-09T15:25:44;32.90;93.30
9987;DHT22;5033;46.310;11.214;2023-07-09T15:28:12;32.80;93.20
9987;DHT22;5033;46.310;11.214;2023-07-09T15:30:40;32.80;94.10
9987;DHT22;5033;46.310;11.214;2023-07-09T15:33:13;32.70;95.30
9987;DHT22;5033;46.310;11.214;2023-07-09T15:35:41;32.60;96.80
9987;DHT22;5033;46.310;11.214;2023-07-09T15:38:30;32.50;97.40
9987;DHT22;5033;46.310;11.214;2023-07-09T15:41:00;32.40;98.30
9987;DHT22;5033;46.310;11.214;2023-07-09T15:43:28;32.30;98.80
9987;DHT22;5033;46.310;11.214;2023-07-09T15:45:57;32.20;99.10
9987;DHT22;5033;46.310;11.214;2023-07-09T15:48:30;32.20;99.10
9987;DHT22;5033;46.310;11.214;2023-07-09T15:50:58;32.20;99.30
9987;DHT22;5033;46.310;11.214;2023-07-09T15:53:26;32.20;99.30
9987;DHT22;5033;46.310;11.214;2023-07-09T15:55:57;32.20;99.90
9987;DHT22;5033;46.310;11.214;2023-07-09T15:58:26;32.10;99.90
9987;DHT22;5033;46.310;11.214;2023-07-09T16:00:54;32.10;99.90